sensor_id;sensor_type;location;lat;lon;timestamp;pressure;altitude;pressure_sealevel;temperature;humidity
81990;BME280;71485;51.638;-0.182;2023-07-29T00:00:11;99525.34;;;25.78;35.20
81990;BME280;71485;51.638;-0.182;2023-07-29T00:02:35;99528.31;;;25.85;35.11
81990;BME280;71485;51.638;-0.182;2023-07-29T00:05:01;99530.80;;;25.75;35.23
81990;BME280;71485;51.638;-0.182;2023-07-29T00:07:27;99531.89;;;25.79;35.19
81990;BME280;71485;51.638;-0.182;2023-07-29T00:09:53;99523.44;;;26.00;35.22
81990;BME280;71485;51.638;-0.182;2023-07-29T00:12:18;99528.71;;;25.50;35.24
81990;BME280;71485;51.638;-0.182;2023-07-29T00:14:43;99529.06;;;25.75;35.19
81990;BME280;71485;51.638;-0.182;2023-07-29T00:17:09;99529.24;;;25.74;35.19
81990;BME280;71485;51.638;-0.182;2023-07-29T00:19:34;99526.07;;;25.76;35.20
81990;BME280;71485;51.638;-0.182;2023-07-29T00:22:00;99527.85;;;25.76;35.20
81990;BME280;71485;51.638;-0.182;2023-07-29T00:24:25;99535.13;;;25.80;35.09
81990;BME280;71485;51.638;-0.182;2023-07-29T00:26:51;99537.30;;;26.05;35.10
81990;BME280;71485;51.638;-0.182;2023-07-29T00:29:18;99541.42;;;25.94;35.24
81990;BME280;71485;51.638;-0.182;2023-07-29T00:31:42;99535.72;;;25.72;35.22
81990;BME280;71485;51.638;-0.182;2023-07-29T00:34:07;99533.99;;;25.90;35.28
81990;BME280;71485;51.638;-0.182;2023-07-29T00:36:33;99530.21;;;25.63;35.31
81990;BME280;71485;51.638;-0.182;2023-07-29T00:39:00;99530.01;;;25.64;35.28
81990;BME280;71485;51.638;-0.182;2023-07-29T00:41:25;99529.99;;;25.88;35.29
81990;BME280;71485;51.638;-0.182;2023-07-29T00:43:50;99527.72;;;25.61;35.32
81990;BME280;71485;51.638;-0.182;2023-07-29T00:46:16;99523.81;;;25.63;35.29
81990;BME280;71485;51.638;-0.182;2023-07-29T00:48:41;99525.67;;;25.66;35.26
81990;BME280;71485;51.638;-0.182;2023-07-29T00:51:07;99522.81;;;25.68;35.20
81990;BME280;71485;51.638;-0.182;2023-07-29T00:53:32;99523.73;;;25.68;35.18
81990;BME280;71485;51.638;-0.182;2023-07-29T00:55:58;99526.02;;;25.86;35.29
81990;BME280;71485;51.638;-0.182;2023-07-29T00:58:23;99526.90;;;25.61;35.29
81990;BME280;71485;51.638;-0.182;2023-07-29T01:00:49;99529.85;;;25.61;35.32
81990;BME280;71485;51.638;-0.182;2023-07-29T01:03:14;99533.79;;;25.75;35.50
81990;BME280;71485;51.638;-0.182;2023-07-29T01:05:48;99531.69;;;25.59;35.42
81990;BME280;71485;51.638;-0.182;2023-07-29T01:08:11;99537.07;;;25.85;35.37
81990;BME280;71485;51.638;-0.182;2023-07-29T01:10:37;99531.97;;;25.67;35.25
81990;BME280;71485;51.638;-0.182;2023-07-29T01:13:02;99535.22;;;25.90;35.22
81990;BME280;71485;51.638;-0.182;2023-07-29T01:15:26;99535.77;;;25.54;35.32
81990;BME280;71485;51.638;-0.182;2023-07-29T01:17:49;99532.17;;;25.53;35.31
81990;BME280;71485;51.638;-0.182;2023-07-29T01:20:15;99527.97;;;25.75;35.31
81990;BME280;71485;51.638;-0.182;2023-07-29T01:22:39;99522.32;;;25.77;35.27
81990;BME280;71485;51.638;-0.182;2023-07-29T01:25:04;99528.53;;;25.77;35.26
81990;BME280;71485;51.638;-0.182;2023-07-29T01:27:30;99525.43;;;25.86;35.12
81990;BME280;71485;51.638;-0.182;2023-07-29T01:29:56;99523.16;;;26.08;35.14
81990;BME280;71485;51.638;-0.182;2023-07-29T01:32:28;99518.80;;;25.62;35.13
81990;BME280;71485;51.638;-0.182;2023-07-29T01:34:53;99519.72;;;25.84;35.16
81990;BME280;71485;51.638;-0.182;2023-07-29T01:37:15;99520.99;;;25.75;35.25
81990;BME280;71485;51.638;-0.182;2023-07-29T01:39:37;99516.10;;;25.76;35.21
81990;BME280;71485;51.638;-0.182;2023-07-29T01:42:03;99515.46;;;25.45;35.28
81990;BME280;71485;51.638;-0.182;2023-07-29T01:44:29;99512.43;;;25.69;35.28
81990;BME280;71485;51.638;-0.182;2023-07-29T01:46:55;99509.29;;;25.72;35.26
81990;BME280;71485;51.638;-0.182;2023-07-29T01:49:24;99509.56;;;25.70;35.27
81990;BME280;71485;51.638;-0.182;2023-07-29T01:51:44;99508.32;;;25.32;35.12
81990;BME280;71485;51.638;-0.182;2023-07-29T01:54:10;99507.62;;;25.82;35.08
81990;BME280;71485;51.638;-0.182;2023-07-29T01:56:35;99514.71;;;25.52;35.14
81990;BME280;71485;51.638;-0.182;2023-07-29T01:59:04;99515.67;;;25.73;35.20
81990;BME280;71485;51.638;-0.182;2023-07-29T02:01:26;99520.25;;;25.69;35.24
81990;BME280;71485;51.638;-0.182;2023-07-29T02:03:52;99522.77;;;25.78;35.15
81990;BME280;71485;51.638;-0.182;2023-07-29T02:06:18;99519.56;;;25.46;35.25
81990;BME280;71485;51.638;-0.182;2023-07-29T02:08:43;99520.20;;;25.74;35.16
81990;BME280;71485;51.638;-0.182;2023-07-29T02:11:09;99517.62;;;25.70;35.22
81990;BME280;71485;51.638;-0.182;2023-07-29T02:13:34;99520.58;;;25.72;35.19
81990;BME280;71485;51.638;-0.182;2023-07-29T02:16:00;99516.83;;;25.41;35.25
81990;BME280;71485;51.638;-0.182;2023-07-29T02:18:25;99516.05;;;25.39;35.27
81990;BME280;71485;51.638;-0.182;2023-07-29T02:20:51;99517.41;;;25.72;35.14
81990;BME280;71485;51.638;-0.182;2023-07-29T02:23:17;99517.89;;;25.68;35.17
81990;BME280;71485;51.638;-0.182;2023-07-29T02:25:43;99515.87;;;25.42;35.17
81990;BME280;71485;51.638;-0.182;2023-07-29T02:28:09;99514.64;;;25.67;35.16
81990;BME280;71485;51.638;-0.182;2023-07-29T02:30:33;99503.95;;;25.31;35.31
81990;BME280;71485;51.638;-0.182;2023-07-29T02:32:58;99502.98;;;25.57;35.31
81990;BME280;71485;51.638;-0.182;2023-07-29T02:35:24;99505.65;;;25.54;35.36
81990;BME280;71485;51.638;-0.182;2023-07-29T02:37:51;99510.85;;;25.41;35.19
81990;BME280;71485;51.638;-0.182;2023-07-29T02:40:20;99513.93;;;25.65;35.17
81990;BME280;71485;51.638;-0.182;2023-07-29T02:42:40;99506.18;;;25.37;35.20
81990;BME280;71485;51.638;-0.182;2023-07-29T02:45:07;99503.21;;;25.57;35.26
81990;BME280;71485;51.638;-0.182;2023-07-29T02:47:32;99497.83;;;25.54;35.37
81990;BME280;71485;51.638;-0.182;2023-07-29T02:49:57;99498.11;;;25.54;35.34
81990;BME280;71485;51.638;-0.182;2023-07-29T02:52:23;99506.40;;;25.56;35.31
81990;BME280;71485;51.638;-0.182;2023-07-29T02:54:48;99500.80;;;25.29;35.37
81990;BME280;71485;51.638;-0.182;2023-07-29T02:57:14;99501.76;;;25.30;35.31
81990;BME280;71485;51.638;-0.182;2023-07-29T02:59:40;99496.97;;;25.56;35.27
81990;BME280;71485;51.638;-0.182;2023-07-29T03:02:05;99498.29;;;25.54;35.31
81990;BME280;71485;51.638;-0.182;2023-07-29T03:04:30;99499.82;;;25.23;35.37
81990;BME280;71485;51.638;-0.182;2023-07-29T03:06:56;99496.11;;;25.57;35.25
81990;BME280;71485;51.638;-0.182;2023-07-29T03:09:23;99493.58;;;25.44;35.38
81990;BME280;71485;51.638;-0.182;2023-07-29T03:11:47;99500.13;;;25.52;35.30
81990;BME280;71485;51.638;-0.182;2023-07-29T03:14:14;99496.72;;;25.50;35.31
81990;BME280;71485;51.638;-0.182;2023-07-29T03:16:38;99499.89;;;25.48;35.32
81990;BME280;71485;51.638;-0.182;2023-07-29T03:19:03;99502.99;;;25.50;35.28
81990;BME280;71485;51.638;-0.182;2023-07-29T03:21:30;99504.50;;;25.49;35.27
81990;BME280;71485;51.638;-0.182;2023-07-29T03:23:55;99500.71;;;25.30;35.18
81990;BME280;71485;51.638;-0.182;2023-07-29T03:26:21;99507.04;;;25.23;35.31
81990;BME280;71485;51.638;-0.182;2023-07-29T03:28:47;99506.46;;;25.47;35.28
81990;BME280;71485;51.638;-0.182;2023-07-29T03:31:11;99503.30;;;25.47;35.29
81990;BME280;71485;51.638;-0.182;2023-07-29T03:33:37;99494.12;;;25.14;35.41
81990;BME280;71485;51.638;-0.182;2023-07-29T03:36:04;99497.09;;;25.12;35.43
81990;BME280;71485;51.638;-0.182;2023-07-29T03:38:28;99493.25;;;25.45;35.30
81990;BME280;71485;51.638;-0.182;2023-07-29T03:40:56;99488.31;;;25.39;35.38
81990;BME280;71485;51.638;-0.182;2023-07-29T03:43:19;99490.93;;;25.17;35.32
81990;BME280;71485;51.638;-0.182;2023-07-29T03:45:45;99502.85;;;25.43;35.32
81990;BME280;71485;51.638;-0.182;2023-07-29T03:48:10;99506.13;;;25.44;35.32
81990;BME280;71485;51.638;-0.182;2023-07-29T03:50:37;99510.38;;;25.41;35.36
81990;BME280;71485;51.638;-0.182;2023-07-29T03:53:01;99506.59;;;25.44;35.30
81990;BME280;71485;51.638;-0.182;2023-07-29T03:55:27;99502.95;;;25.34;35.42
81990;BME280;71485;51.638;-0.182;2023-07-29T03:57:52;99508.56;;;25.38;35.33
81990;BME280;71485;51.638;-0.182;2023-07-29T04:00:18;99507.40;;;25.34;35.39
81990;BME280;71485;51.638;-0.182;2023-07-29T04:02:44;99512.88;;;25.30;35.43
81990;BME280;71485;51.638;-0.182;2023-07-29T04:05:09;99516.84;;;25.14;35.31
81990;BME280;71485;51.638;-0.182;2023-07-29T04:07:35;99518.27;;;25.59;35.34
81990;BME280;71485;51.638;-0.182;2023-07-29T04:10:01;99515.77;;;25.32;35.35
81990;BME280;71485;51.638;-0.182;2023-07-29T04:12:26;99515.03;;;25.26;35.40
81990;BME280;71485;51.638;-0.182;2023-07-29T04:14:51;99520.56;;;25.45;35.47
81990;BME280;71485;51.638;-0.182;2023-07-29T04:17:17;99518.87;;;25.32;35.30
81990;BME280;71485;51.638;-0.182;2023-07-29T04:19:42;99524.18;;;25.28;35.37
81990;BME280;71485;51.638;-0.182;2023-07-29T04:22:08;99523.80;;;25.37;35.27
81990;BME280;71485;51.638;-0.182;2023-07-29T04:24:35;99520.33;;;25.34;35.30
81990;BME280;71485;51.638;-0.182;2023-07-29T04:27:00;99520.96;;;25.36;35.28
81990;BME280;71485;51.638;-0.182;2023-07-29T04:29:24;99520.85;;;25.26;35.49
81990;BME280;71485;51.638;-0.182;2023-07-29T04:31:50;99516.00;;;25.26;35.45
81990;BME280;71485;51.638;-0.182;2023-07-29T04:34:15;99516.97;;;25.24;35.56
81990;BME280;71485;51.638;-0.182;2023-07-29T04:36:41;99516.69;;;25.30;35.47
81990;BME280;71485;51.638;-0.182;2023-07-29T04:39:07;99514.43;;;25.31;35.46
81990;BME280;71485;51.638;-0.182;2023-07-29T04:41:32;99507.58;;;25.31;35.48
81990;BME280;71485;51.638;-0.182;2023-07-29T04:43:58;99487.34;;;25.32;35.42
81990;BME280;71485;51.638;-0.182;2023-07-29T04:46:23;99485.50;;;25.22;35.61
81990;BME280;71485;51.638;-0.182;2023-07-29T04:48:51;99503.59;;;25.38;35.42
81990;BME280;71485;51.638;-0.182;2023-07-29T04:51:15;99515.47;;;25.30;35.94
81990;BME280;71485;51.638;-0.182;2023-07-29T04:53:44;99515.35;;;25.28;35.49
81990;BME280;71485;51.638;-0.182;2023-07-29T04:56:05;99512.35;;;25.19;35.88
81990;BME280;71485;51.638;-0.182;2023-07-29T04:58:31;99516.71;;;25.30;35.99
81990;BME280;71485;51.638;-0.182;2023-07-29T05:00:57;99509.62;;;25.00;36.05
81990;BME280;71485;51.638;-0.182;2023-07-29T05:03:22;99516.54;;;25.58;35.85
81990;BME280;71485;51.638;-0.182;2023-07-29T05:05:48;99517.04;;;25.65;35.73
81990;BME280;71485;51.638;-0.182;2023-07-29T05:08:13;99513.86;;;25.22;35.66
81990;BME280;71485;51.638;-0.182;2023-07-29T05:10:39;99512.69;;;25.18;35.67
81990;BME280;71485;51.638;-0.182;2023-07-29T05:13:04;99514.82;;;25.32;35.77
81990;BME280;71485;51.638;-0.182;2023-07-29T05:15:35;99518.79;;;25.25;35.86
81990;BME280;71485;51.638;-0.182;2023-07-29T05:17:55;99516.66;;;25.11;36.12
81990;BME280;71485;51.638;-0.182;2023-07-29T05:20:21;99511.39;;;25.15;35.60
81990;BME280;71485;51.638;-0.182;2023-07-29T05:22:46;99511.17;;;25.06;35.74
81990;BME280;71485;51.638;-0.182;2023-07-29T05:25:12;99514.10;;;25.30;35.78
81990;BME280;71485;51.638;-0.182;2023-07-29T05:27:39;99513.85;;;25.07;35.77
81990;BME280;71485;51.638;-0.182;2023-07-29T05:30:03;99509.18;;;25.27;35.58
81990;BME280;71485;51.638;-0.182;2023-07-29T05:32:28;99504.48;;;25.29;35.42
81990;BME280;71485;51.638;-0.182;2023-07-29T05:34:54;99502.18;;;25.30;35.34
81990;BME280;71485;51.638;-0.182;2023-07-29T05:37:20;99502.44;;;25.63;35.31
81990;BME280;71485;51.638;-0.182;2023-07-29T05:39:45;99508.41;;;25.38;35.24
81990;BME280;71485;51.638;-0.182;2023-07-29T05:42:11;99512.36;;;25.36;35.26
81990;BME280;71485;51.638;-0.182;2023-07-29T05:44:36;99513.83;;;25.34;35.30
81990;BME280;71485;51.638;-0.182;2023-07-29T05:47:03;99519.55;;;25.65;35.22
81990;BME280;71485;51.638;-0.182;2023-07-29T05:49:29;99519.22;;;25.49;35.07
81990;BME280;71485;51.638;-0.182;2023-07-29T05:51:53;99517.38;;;25.72;35.06
81990;BME280;71485;51.638;-0.182;2023-07-29T05:54:19;99520.92;;;25.73;35.07
81990;BME280;71485;51.638;-0.182;2023-07-29T05:56:44;99522.31;;;25.44;35.11
81990;BME280;71485;51.638;-0.182;2023-07-29T05:59:11;99522.91;;;25.44;35.17
81990;BME280;71485;51.638;-0.182;2023-07-29T06:01:36;99518.63;;;25.45;35.07
81990;BME280;71485;51.638;-0.182;2023-07-29T06:04:01;99522.23;;;25.53;34.99
81990;BME280;71485;51.638;-0.182;2023-07-29T06:06:26;99522.79;;;25.45;35.10
81990;BME280;71485;51.638;-0.182;2023-07-29T06:08:52;99523.70;;;25.44;35.10
81990;BME280;71485;51.638;-0.182;2023-07-29T06:11:17;99517.08;;;25.54;34.97
81990;BME280;71485;51.638;-0.182;2023-07-29T06:13:45;99518.48;;;25.55;34.95
81990;BME280;71485;51.638;-0.182;2023-07-29T06:16:08;99519.00;;;25.53;35.02
81990;BME280;71485;51.638;-0.182;2023-07-29T06:18:34;99517.13;;;25.85;34.95
81990;BME280;71485;51.638;-0.182;2023-07-29T06:21:01;99514.46;;;25.58;35.03
81990;BME280;71485;51.638;-0.182;2023-07-29T06:23:25;99519.71;;;25.57;34.95
81990;BME280;71485;51.638;-0.182;2023-07-29T06:25:51;99522.45;;;25.45;35.12
81990;BME280;71485;51.638;-0.182;2023-07-29T06:28:16;99521.60;;;25.46;35.15
81990;BME280;71485;51.638;-0.182;2023-07-29T06:30:41;99522.82;;;25.51;35.12
81990;BME280;71485;51.638;-0.182;2023-07-29T06:33:07;99519.34;;;25.51;35.10
81990;BME280;71485;51.638;-0.182;2023-07-29T06:35:33;99523.48;;;25.47;35.17
81990;BME280;71485;51.638;-0.182;2023-07-29T06:37:59;99527.18;;;25.49;35.23
81990;BME280;71485;51.638;-0.182;2023-07-29T06:40:24;99525.91;;;25.57;35.13
81990;BME280;71485;51.638;-0.182;2023-07-29T06:42:49;99527.55;;;25.50;35.17
81990;BME280;71485;51.638;-0.182;2023-07-29T06:45:16;99528.67;;;25.45;35.22
81990;BME280;71485;51.638;-0.182;2023-07-29T06:47:40;99530.76;;;25.43;35.26
81990;BME280;71485;51.638;-0.182;2023-07-29T06:50:08;99533.45;;;25.51;35.15
81990;BME280;71485;51.638;-0.182;2023-07-29T06:52:33;99532.59;;;25.45;35.28
81990;BME280;71485;51.638;-0.182;2023-07-29T06:54:57;99531.17;;;25.36;35.46
81990;BME280;71485;51.638;-0.182;2023-07-29T06:57:23;99535.31;;;25.45;35.30
81990;BME280;71485;51.638;-0.182;2023-07-29T06:59:49;99536.08;;;25.44;35.34
81990;BME280;71485;51.638;-0.182;2023-07-29T07:02:14;99540.07;;;25.41;35.38
81990;BME280;71485;51.638;-0.182;2023-07-29T07:04:39;99539.05;;;25.44;35.35
81990;BME280;71485;51.638;-0.182;2023-07-29T07:07:05;99535.87;;;25.56;35.51
81990;BME280;71485;51.638;-0.182;2023-07-29T07:09:30;99538.86;;;25.88;35.70
81990;BME280;71485;51.638;-0.182;2023-07-29T07:11:56;99534.29;;;25.35;36.17
81990;BME280;71485;51.638;-0.182;2023-07-29T07:14:21;99533.19;;;25.62;36.31
81990;BME280;71485;51.638;-0.182;2023-07-29T07:16:47;99538.05;;;25.45;36.22
81990;BME280;71485;51.638;-0.182;2023-07-29T07:19:13;99537.73;;;25.70;36.17
81990;BME280;71485;51.638;-0.182;2023-07-29T07:21:39;99537.16;;;25.65;36.14
81990;BME280;71485;51.638;-0.182;2023-07-29T07:24:04;99535.50;;;25.91;36.09
81990;BME280;71485;51.638;-0.182;2023-07-29T07:26:31;99540.81;;;25.47;36.05
81990;BME280;71485;51.638;-0.182;2023-07-29T07:28:55;99543.83;;;25.44;35.96
81990;BME280;71485;51.638;-0.182;2023-07-29T07:31:20;99540.17;;;25.40;35.97
81990;BME280;71485;51.638;-0.182;2023-07-29T07:33:46;99539.00;;;25.49;35.81
81990;BME280;71485;51.638;-0.182;2023-07-29T07:36:11;99541.66;;;25.50;35.82
81990;BME280;71485;51.638;-0.182;2023-07-29T07:38:38;99542.81;;;25.49;35.76
81990;BME280;71485;51.638;-0.182;2023-07-29T07:41:02;99541.07;;;25.49;35.73
81990;BME280;71485;51.638;-0.182;2023-07-29T07:43:27;99536.49;;;25.67;35.81
81990;BME280;71485;51.638;-0.182;2023-07-29T07:45:58;99536.64;;;25.50;35.74
81990;BME280;71485;51.638;-0.182;2023-07-29T07:48:23;99534.08;;;25.51;35.74
81990;BME280;71485;51.638;-0.182;2023-07-29T07:50:44;99528.84;;;25.57;35.68
81990;BME280;71485;51.638;-0.182;2023-07-29T07:53:09;99530.12;;;25.54;35.69
81990;BME280;71485;51.638;-0.182;2023-07-29T07:55:36;99530.64;;;25.32;35.73
81990;BME280;71485;51.638;-0.182;2023-07-29T07:58:01;99530.66;;;25.64;35.85
81990;BME280;71485;51.638;-0.182;2023-07-29T08:00:26;99536.00;;;25.45;35.64
81990;BME280;71485;51.638;-0.182;2023-07-29T08:02:52;99536.01;;;25.62;35.76
81990;BME280;71485;51.638;-0.182;2023-07-29T08:05:17;99533.28;;;25.75;35.55
81990;BME280;71485;51.638;-0.182;2023-07-29T08:07:43;99532.29;;;25.75;35.56
81990;BME280;71485;51.638;-0.182;2023-07-29T08:10:08;99535.57;;;25.79;35.52
81990;BME280;71485;51.638;-0.182;2023-07-29T08:12:34;99530.37;;;25.80;35.55
81990;BME280;71485;51.638;-0.182;2023-07-29T08:14:59;99532.30;;;25.85;35.57
81990;BME280;71485;51.638;-0.182;2023-07-29T08:17:25;99534.63;;;25.85;35.54
81990;BME280;71485;51.638;-0.182;2023-07-29T08:19:50;99528.94;;;26.00;35.32
81990;BME280;71485;51.638;-0.182;2023-07-29T08:22:16;99523.69;;;26.02;35.29
81990;BME280;71485;51.638;-0.182;2023-07-29T08:24:41;99526.11;;;25.93;35.52
81990;BME280;71485;51.638;-0.182;2023-07-29T08:27:08;99530.74;;;26.01;35.42
81990;BME280;71485;51.638;-0.182;2023-07-29T08:29:33;99526.42;;;26.07;35.22
81990;BME280;71485;51.638;-0.182;2023-07-29T08:31:58;99523.01;;;26.11;35.11
81990;BME280;71485;51.638;-0.182;2023-07-29T08:34:23;99522.51;;;25.86;35.18
81990;BME280;71485;51.638;-0.182;2023-07-29T08:36:50;99522.34;;;26.10;35.14
81990;BME280;71485;51.638;-0.182;2023-07-29T08:39:15;99527.05;;;25.87;35.12
81990;BME280;71485;51.638;-0.182;2023-07-29T08:41:47;99525.72;;;26.17;35.07
81990;BME280;71485;51.638;-0.182;2023-07-29T08:44:09;99523.81;;;25.73;35.03
81990;BME280;71485;51.638;-0.182;2023-07-29T08:46:31;99528.52;;;26.22;35.05
81990;BME280;71485;51.638;-0.182;2023-07-29T08:48:59;99521.55;;;26.19;35.16
81990;BME280;71485;51.638;-0.182;2023-07-29T08:51:24;99520.25;;;26.23;35.32
81990;BME280;71485;51.638;-0.182;2023-07-29T08:53:48;99522.07;;;25.79;35.50
81990;BME280;71485;51.638;-0.182;2023-07-29T08:56:13;99520.81;;;26.02;35.55
81990;BME280;71485;51.638;-0.182;2023-07-29T08:58:39;99517.64;;;26.01;35.78
81990;BME280;71485;51.638;-0.182;2023-07-29T09:01:08;99521.27;;;26.03;35.78
81990;BME280;71485;51.638;-0.182;2023-07-29T09:03:30;99522.38;;;26.05;35.87
81990;BME280;71485;51.638;-0.182;2023-07-29T09:05:57;99524.42;;;26.32;35.88
81990;BME280;71485;51.638;-0.182;2023-07-29T09:08:21;99527.50;;;26.08;35.80
81990;BME280;71485;51.638;-0.182;2023-07-29T09:10:47;99524.44;;;26.10;35.75
81990;BME280;71485;51.638;-0.182;2023-07-29T09:13:12;99526.85;;;25.81;35.82
81990;BME280;71485;51.638;-0.182;2023-07-29T09:15:38;99528.59;;;26.33;35.65
81990;BME280;71485;51.638;-0.182;2023-07-29T09:18:09;99531.72;;;26.17;35.50
81990;BME280;71485;51.638;-0.182;2023-07-29T09:20:29;99536.06;;;26.41;35.53
81990;BME280;71485;51.638;-0.182;2023-07-29T09:22:55;99537.09;;;26.15;35.66
81990;BME280;71485;51.638;-0.182;2023-07-29T09:25:24;99536.64;;;26.16;35.70
81990;BME280;71485;51.638;-0.182;2023-07-29T09:27:45;99537.08;;;26.17;35.72
81990;BME280;71485;51.638;-0.182;2023-07-29T09:30:16;99536.93;;;26.44;35.61
81990;BME280;71485;51.638;-0.182;2023-07-29T09:32:43;99538.07;;;26.23;35.54
81990;BME280;71485;51.638;-0.182;2023-07-29T09:35:02;99539.66;;;26.03;35.66
81990;BME280;71485;51.638;-0.182;2023-07-29T09:37:28;99536.14;;;26.25;35.89
81990;BME280;71485;51.638;-0.182;2023-07-29T09:39:53;99537.57;;;26.03;35.80
81990;BME280;71485;51.638;-0.182;2023-07-29T09:42:21;99535.77;;;26.49;35.90
81990;BME280;71485;51.638;-0.182;2023-07-29T09:44:44;99534.50;;;26.34;35.98
81990;BME280;71485;51.638;-0.182;2023-07-29T09:47:14;99533.70;;;26.38;36.03
81990;BME280;71485;51.638;-0.182;2023-07-29T09:49:37;99534.38;;;26.17;35.98
81990;BME280;71485;51.638;-0.182;2023-07-29T09:52:01;99534.33;;;26.44;35.91
81990;BME280;71485;51.638;-0.182;2023-07-29T09:54:27;99530.33;;;26.26;35.67
81990;BME280;71485;51.638;-0.182;2023-07-29T09:56:52;99537.18;;;26.48;35.69
81990;BME280;71485;51.638;-0.182;2023-07-29T09:59:19;99530.65;;;26.21;35.65
81990;BME280;71485;51.638;-0.182;2023-07-29T10:01:43;99536.11;;;26.38;35.75
81990;BME280;71485;51.638;-0.182;2023-07-29T10:04:11;99537.19;;;26.40;35.61
81990;BME280;71485;51.638;-0.182;2023-07-29T10:06:34;99539.61;;;26.42;35.57
81990;BME280;71485;51.638;-0.182;2023-07-29T10:08:59;99541.74;;;26.42;35.52
81990;BME280;71485;51.638;-0.182;2023-07-29T10:11:24;99538.89;;;26.41;35.41
81990;BME280;71485;51.638;-0.182;2023-07-29T10:13:50;99531.10;;;26.39;35.41
81990;BME280;71485;51.638;-0.182;2023-07-29T10:16:16;99528.89;;;26.41;35.33
81990;BME280;71485;51.638;-0.182;2023-07-29T10:18:41;99524.51;;;26.41;35.30
81990;BME280;71485;51.638;-0.182;2023-07-29T10:21:06;99518.45;;;26.44;35.20
81990;BME280;71485;51.638;-0.182;2023-07-29T10:23:38;99523.94;;;26.51;35.09
81990;BME280;71485;51.638;-0.182;2023-07-29T10:26:04;99518.91;;;26.33;34.98
81990;BME280;71485;51.638;-0.182;2023-07-29T10:28:25;99525.17;;;26.36;34.91
81990;BME280;71485;51.638;-0.182;2023-07-29T10:30:48;99519.84;;;26.44;34.83
81990;BME280;71485;51.638;-0.182;2023-07-29T10:33:14;99521.19;;;26.51;34.72
81990;BME280;71485;51.638;-0.182;2023-07-29T10:35:40;99527.86;;;26.50;34.73
81990;BME280;71485;51.638;-0.182;2023-07-29T10:38:06;99520.88;;;26.74;34.70
81990;BME280;71485;51.638;-0.182;2023-07-29T10:40:43;99519.75;;;26.54;34.68
81990;BME280;71485;51.638;-0.182;2023-07-29T10:43:01;99522.07;;;26.80;34.67
81990;BME280;71485;51.638;-0.182;2023-07-29T10:45:22;99521.57;;;26.57;34.61
81990;BME280;71485;51.638;-0.182;2023-07-29T10:47:48;99529.41;;;26.60;33.83
81990;BME280;71485;51.638;-0.182;2023-07-29T10:50:19;99533.28;;;26.60;34.64
81990;BME280;71485;51.638;-0.182;2023-07-29T10:52:40;99540.28;;;26.86;34.68
81990;BME280;71485;51.638;-0.182;2023-07-29T10:57:32;99539.66;;;26.51;35.01
81990;BME280;71485;51.638;-0.182;2023-07-29T10:59:56;99546.70;;;26.64;34.83
81990;BME280;71485;51.638;-0.182;2023-07-29T11:02:21;99552.48;;;26.59;35.01
81990;BME280;71485;51.638;-0.182;2023-07-29T11:04:47;99555.62;;;26.60;34.84
81990;BME280;71485;51.638;-0.182;2023-07-29T11:07:22;99554.82;;;26.71;34.61
81990;BME280;71485;51.638;-0.182;2023-07-29T11:09:40;99552.36;;;26.71;34.67
81990;BME280;71485;51.638;-0.182;2023-07-29T11:12:05;99551.91;;;26.72;34.38
81990;BME280;71485;51.638;-0.182;2023-07-29T11:14:28;99545.29;;;26.79;34.63
81990;BME280;71485;51.638;-0.182;2023-07-29T11:16:55;99542.23;;;26.79;34.65
81990;BME280;71485;51.638;-0.182;2023-07-29T11:19:20;99543.61;;;26.48;34.61
81990;BME280;71485;51.638;-0.182;2023-07-29T11:21:44;99549.01;;;26.77;34.52
81990;BME280;71485;51.638;-0.182;2023-07-29T11:24:11;99547.54;;;26.78;34.60
81990;BME280;71485;51.638;-0.182;2023-07-29T11:26:37;99546.82;;;26.79;34.33
81990;BME280;71485;51.638;-0.182;2023-07-29T11:29:02;99546.02;;;26.51;34.38
81990;BME280;71485;51.638;-0.182;2023-07-29T11:33:52;99546.33;;;26.84;34.28
81990;BME280;71485;51.638;-0.182;2023-07-29T11:36:18;99546.25;;;26.82;34.37
81990;BME280;71485;51.638;-0.182;2023-07-29T11:38:44;99541.80;;;26.67;34.36
81990;BME280;71485;51.638;-0.182;2023-07-29T11:41:09;99542.24;;;26.97;34.40
81990;BME280;71485;51.638;-0.182;2023-07-29T11:43:35;99536.74;;;27.08;34.36
81990;BME280;71485;51.638;-0.182;2023-07-29T11:46:01;99548.01;;;27.09;34.37
81990;BME280;71485;51.638;-0.182;2023-07-29T11:48:27;99540.89;;;26.75;34.42
81990;BME280;71485;51.638;-0.182;2023-07-29T11:50:53;99543.48;;;26.96;34.22
81990;BME280;71485;51.638;-0.182;2023-07-29T11:53:16;99539.68;;;26.95;34.16
81990;BME280;71485;51.638;-0.182;2023-07-29T11:55:50;99549.56;;;26.77;34.08
81990;BME280;71485;51.638;-0.182;2023-07-29T11:58:07;99541.98;;;26.93;34.47
81990;BME280;71485;51.638;-0.182;2023-07-29T12:00:34;99538.53;;;26.91;34.51
81990;BME280;71485;51.638;-0.182;2023-07-29T12:03:00;99538.01;;;27.17;34.31
81990;BME280;71485;51.638;-0.182;2023-07-29T12:05:24;99542.91;;;26.75;34.18
81990;BME280;71485;51.638;-0.182;2023-07-29T12:07:50;99542.96;;;26.74;34.58
81990;BME280;71485;51.638;-0.182;2023-07-29T12:10:16;99543.31;;;27.24;35.18
81990;BME280;71485;51.638;-0.182;2023-07-29T12:12:45;99537.79;;;26.85;35.15
81990;BME280;71485;51.638;-0.182;2023-07-29T12:15:08;99544.79;;;27.38;35.12
81990;BME280;71485;51.638;-0.182;2023-07-29T12:17:31;99550.38;;;27.28;35.00
81990;BME280;71485;51.638;-0.182;2023-07-29T12:19:57;99545.24;;;27.10;34.89
81990;BME280;71485;51.638;-0.182;2023-07-29T12:22:25;99550.11;;;27.07;34.69
81990;BME280;71485;51.638;-0.182;2023-07-29T12:24:51;99547.33;;;27.33;34.28
81990;BME280;71485;51.638;-0.182;2023-07-29T12:27:15;99543.04;;;27.45;34.27
81990;BME280;71485;51.638;-0.182;2023-07-29T12:29:41;99546.63;;;27.45;33.67
81990;BME280;71485;51.638;-0.182;2023-07-29T12:32:05;99547.90;;;27.14;33.30
81990;BME280;71485;51.638;-0.182;2023-07-29T12:34:31;99552.20;;;27.21;32.45
81990;BME280;71485;51.638;-0.182;2023-07-29T12:37:02;99552.86;;;27.47;32.19
81990;BME280;71485;51.638;-0.182;2023-07-29T12:39:22;99556.19;;;27.22;32.21
81990;BME280;71485;51.638;-0.182;2023-07-29T12:41:48;99563.14;;;27.04;32.23
81990;BME280;71485;51.638;-0.182;2023-07-29T12:44:12;99565.89;;;26.86;32.35